sensor_id;sensor_type;location;lat;lon;timestamp;pressure;altitude;pressure_sealevel;temperature;humidity
13705;BME280;6924;52.122;9.952;2022-10-18T00:00:31;101504.63;;;17.42;100.00
13705;BME280;6924;52.122;9.952;2022-10-18T00:02:57;101502.09;;;17.41;100.00
13705;BME280;6924;52.122;9.952;2022-10-18T00:05:24;101509.34;;;17.38;100.00
13705;BME280;6924;52.122;9.952;2022-10-18T00:07:50;101504.78;;;17.37;100.00
13705;BME280;6924;52.122;9.952;2022-10-18T00:10:17;101513.22;;;17.33;100.00
13705;BME280;6924;52.122;9.952;2022-10-18T00:12:45;101516.75;;;17.30;100.00
13705;BME280;6924;52.122;9.952;2022-10-18T00:15:11;101513.88;;;17.30;100.00
13705;BME280;6924;52.122;9.952;2022-10-18T00:17:39;101508.00;;;17.27;100.00
13705;BME280;6924;52.122;9.952;2022-10-18T00:20:06;101510.03;;;17.26;100.00
13705;BME280;6924;52.122;9.952;2022-10-18T00:22:33;101514.91;;;17.26;100.00
13705;BME280;6924;52.122;9.952;2022-10-18T00:25:00;101514.38;;;17.24;100.00
13705;BME280;6924;52.122;9.952;2022-10-18T00:27:27;101518.44;;;17.23;100.00
13705;BME280;6924;52.122;9.952;2022-10-18T00:29:55;101517.09;;;17.20;100.00
13705;BME280;6924;52.122;9.952;2022-10-18T00:32:22;101522.81;;;17.20;100.00
13705;BME280;6924;52.122;9.952;2022-10-18T00:34:49;101516.94;;;17.17;100.00
13705;BME280;6924;52.122;9.952;2022-10-18T00:37:16;101515.25;;;17.16;100.00
13705;BME280;6924;52.122;9.952;2022-10-18T00:39:43;101512.22;;;17.12;100.00
13705;BME280;6924;52.122;9.952;2022-10-18T00:42:10;101515.09;;;17.12;100.00
13705;BME280;6924;52.122;9.952;2022-10-18T00:45:19;101517.44;;;17.10;100.00
13705;BME280;6924;52.122;9.952;2022-10-18T00:47:51;101519.78;;;17.08;100.00
13705;BME280;6924;52.122;9.952;2022-10-18T00:50:19;101526.69;;;17.07;100.00
13705;BME280;6924;52.122;9.952;2022-10-18T00:52:50;101527.84;;;17.06;100.00
13705;BME280;6924;52.122;9.952;2022-10-18T00:55:18;101528.22;;;17.04;100.00
13705;BME280;6924;52.122;9.952;2022-10-18T00:57:45;101516.78;;;17.04;100.00
13705;BME280;6924;52.122;9.952;2022-10-18T01:00:12;101526.84;;;17.02;100.00
13705;BME280;6924;52.122;9.952;2022-10-18T01:02:42;101529.19;;;17.00;100.00
13705;BME280;6924;52.122;9.952;2022-10-18T01:05:10;101534.06;;;16.99;100.00
13705;BME280;6924;52.122;9.952;2022-10-18T01:07:55;101534.25;;;16.94;100.00
13705;BME280;6924;52.122;9.952;2022-10-18T01:10:28;101537.09;;;16.94;100.00
13705;BME280;6924;52.122;9.952;2022-10-18T01:13:07;101533.72;;;16.92;100.00
13705;BME280;6924;52.122;9.952;2022-10-18T01:15:41;101538.25;;;16.93;100.00
13705;BME280;6924;52.122;9.952;2022-10-18T01:18:18;101533.56;;;16.88;100.00
13705;BME280;6924;52.122;9.952;2022-10-18T01:21:06;101533.56;;;16.88;100.00
13705;BME280;6924;52.122;9.952;2022-10-18T01:26:49;101516.25;;;16.85;100.00
13705;BME280;6924;52.122;9.952;2022-10-18T01:29:26;101506.34;;;16.82;100.00
13705;BME280;6924;52.122;9.952;2022-10-18T01:31:58;101506.34;;;16.82;100.00
13705;BME280;6924;52.122;9.952;2022-10-18T01:34:30;101512.66;;;16.79;100.00
13705;BME280;6924;52.122;9.952;2022-10-18T01:36:58;101510.13;;;16.78;100.00
13705;BME280;6924;52.122;9.952;2022-10-18T01:39:28;101501.94;;;16.76;100.00
13705;BME280;6924;52.122;9.952;2022-10-18T01:41:57;101505.09;;;16.74;100.00
13705;BME280;6924;52.122;9.952;2022-10-18T01:44:27;101501.41;;;16.74;100.00
13705;BME280;6924;52.122;9.952;2022-10-18T01:46:57;101504.28;;;16.74;100.00
13705;BME280;6924;52.122;9.952;2022-10-18T01:49:25;101503.44;;;16.73;100.00
13705;BME280;6924;52.122;9.952;2022-10-18T01:51:52;101495.19;;;16.72;100.00
13705;BME280;6924;52.122;9.952;2022-10-18T01:54:23;101499.56;;;16.69;100.00
13705;BME280;6924;52.122;9.952;2022-10-18T01:56:55;101502.75;;;16.68;100.00
13705;BME280;6924;52.122;9.952;2022-10-18T01:59:33;101509.66;;;16.67;100.00
13705;BME280;6924;52.122;9.952;2022-10-18T02:02:10;101512.84;;;16.65;100.00
13705;BME280;6924;52.122;9.952;2022-10-18T02:04:47;101510.81;;;16.66;100.00
13705;BME280;6924;52.122;9.952;2022-10-18T02:07:22;101508.28;;;16.64;100.00
13705;BME280;6924;52.122;9.952;2022-10-18T02:10:00;101509.47;;;16.63;100.00
13705;BME280;6924;52.122;9.952;2022-10-18T02:12:31;101498.38;;;16.62;100.00
13705;BME280;6924;52.122;9.952;2022-10-18T02:14:59;101498.22;;;16.58;100.00
13705;BME280;6924;52.122;9.952;2022-10-18T02:17:29;101492.50;;;16.58;100.00
13705;BME280;6924;52.122;9.952;2022-10-18T02:19:56;101486.59;;;16.55;100.00
13705;BME280;6924;52.122;9.952;2022-10-18T02:22:24;101483.56;;;16.51;100.00
13705;BME280;6924;52.122;9.952;2022-10-18T02:24:53;101485.75;;;16.45;100.00
13705;BME280;6924;52.122;9.952;2022-10-18T02:27:21;101481.88;;;16.41;100.00
13705;BME280;6924;52.122;9.952;2022-10-18T02:29:48;101473.31;;;16.41;100.00
13705;BME280;6924;52.122;9.952;2022-10-18T02:32:18;101481.88;;;16.41;100.00
13705;BME280;6924;52.122;9.952;2022-10-18T02:34:52;101474.81;;;16.39;100.00
13705;BME280;6924;52.122;9.952;2022-10-18T02:37:23;101471.13;;;16.38;100.00
13705;BME280;6924;52.122;9.952;2022-10-18T02:39:52;101471.44;;;16.37;100.00
13705;BME280;6924;52.122;9.952;2022-10-18T02:42:19;101468.91;;;16.35;100.00
13705;BME280;6924;52.122;9.952;2022-10-18T02:44:45;101473.28;;;16.32;100.00
13705;BME280;6924;52.122;9.952;2022-10-18T02:47:12;101473.28;;;16.32;100.00
13705;BME280;6924;52.122;9.952;2022-10-18T02:49:38;101479.31;;;16.31;100.00
13705;BME280;6924;52.122;9.952;2022-10-18T02:52:06;101483.34;;;16.30;100.00
13705;BME280;6924;52.122;9.952;2022-10-18T02:54:33;101493.94;;;16.29;100.00
13705;BME280;6924;52.122;9.952;2022-10-18T02:56:59;101486.84;;;16.27;100.00
13705;BME280;6924;52.122;9.952;2022-10-18T02:59:26;101492.56;;;16.27;100.00
13705;BME280;6924;52.122;9.952;2022-10-18T03:01:52;101488.88;;;16.26;100.00
13705;BME280;6924;52.122;9.952;2022-10-18T03:04:19;101486.38;;;16.25;100.00
13705;BME280;6924;52.122;9.952;2022-10-18T03:06:45;101478.97;;;16.24;100.00
13705;BME280;6924;52.122;9.952;2022-10-18T03:09:13;101488.72;;;16.23;100.00
13705;BME280;6924;52.122;9.952;2022-10-18T03:11:39;101488.19;;;16.21;100.00
13705;BME280;6924;52.122;9.952;2022-10-18T03:14:06;101489.03;;;16.21;100.00
13705;BME280;6924;52.122;9.952;2022-10-18T03:16:33;101482.81;;;16.19;100.00
13705;BME280;6924;52.122;9.952;2022-10-18T03:18:59;101477.44;;;16.18;100.00
13705;BME280;6924;52.122;9.952;2022-10-18T03:21:25;101481.97;;;16.19;100.00
13705;BME280;6924;52.122;9.952;2022-10-18T03:23:52;101479.44;;;16.17;100.00
13705;BME280;6924;52.122;9.952;2022-10-18T03:26:20;101474.94;;;16.16;100.00
13705;BME280;6924;52.122;9.952;2022-10-18T03:28:46;101476.41;;;16.14;100.00
13705;BME280;6924;52.122;9.952;2022-10-18T03:31:13;101476.41;;;16.14;100.00
13705;BME280;6924;52.122;9.952;2022-10-18T03:33:39;101453.06;;;16.11;100.00
13705;BME280;6924;52.122;9.952;2022-10-18T03:36:06;101458.78;;;16.11;100.00
13705;BME280;6924;52.122;9.952;2022-10-18T03:38:32;101464.81;;;16.10;100.00
13705;BME280;6924;52.122;9.952;2022-10-18T03:40:59;101463.13;;;16.09;100.00
13705;BME280;6924;52.122;9.952;2022-10-18T03:43:27;101461.16;;;16.09;100.00
13705;BME280;6924;52.122;9.952;2022-10-18T03:45:53;101465.97;;;16.09;100.00
13705;BME280;6924;52.122;9.952;2022-10-18T03:48:20;101462.28;;;16.08;100.00
13705;BME280;6924;52.122;9.952;2022-10-18T03:50:46;101458.59;;;16.08;100.00
13705;BME280;6924;52.122;9.952;2022-10-18T03:53:13;101464.31;;;16.08;100.00
13705;BME280;6924;52.122;9.952;2022-10-18T03:55:39;101463.47;;;16.07;100.00
13705;BME280;6924;52.122;9.952;2022-10-18T03:58:06;101458.94;;;16.06;100.00
13705;BME280;6924;52.122;9.952;2022-10-18T04:00:34;101445.84;;;16.05;100.00
13705;BME280;6924;52.122;9.952;2022-10-18T04:03:00;101444.66;;;16.06;100.00
13705;BME280;6924;52.122;9.952;2022-10-18T04:05:27;101450.38;;;16.06;100.00
13705;BME280;6924;52.122;9.952;2022-10-18T04:07:55;101454.41;;;16.05;100.00
13705;BME280;6924;52.122;9.952;2022-10-18T04:10:22;101461.78;;;16.06;100.00
13705;BME280;6924;52.122;9.952;2022-10-18T04:12:48;101468.16;;;16.03;100.00
13705;BME280;6924;52.122;9.952;2022-10-18T04:15:15;101464.81;;;16.01;100.00
13705;BME280;6924;52.122;9.952;2022-10-18T04:17:43;101457.38;;;16.00;100.00
13705;BME280;6924;52.122;9.952;2022-10-18T04:20:10;101454.03;;;15.98;100.00
13705;BME280;6924;52.122;9.952;2022-10-18T04:22:36;101456.03;;;15.98;100.00
13705;BME280;6924;52.122;9.952;2022-10-18T04:25:04;101451.53;;;15.97;100.00
13705;BME280;6924;52.122;9.952;2022-10-18T04:27:30;101449.81;;;15.96;100.00
13705;BME280;6924;52.122;9.952;2022-10-18T04:29:57;101446.97;;;15.96;100.00
13705;BME280;6924;52.122;9.952;2022-10-18T04:32:23;101452.69;;;15.96;100.00
13705;BME280;6924;52.122;9.952;2022-10-18T04:34:53;101452.16;;;15.94;100.00
13705;BME280;6924;52.122;9.952;2022-10-18T04:37:19;101451.00;;;15.95;100.00
13705;BME280;6924;52.122;9.952;2022-10-18T04:39:46;101439.91;;;15.93;100.00
13705;BME280;6924;52.122;9.952;2022-10-18T04:42:12;101444.78;;;15.93;100.00
13705;BME280;6924;52.122;9.952;2022-10-18T04:44:39;101440.25;;;15.91;100.00
13705;BME280;6924;52.122;9.952;2022-10-18T04:47:06;101448.47;;;15.93;100.00
13705;BME280;6924;52.122;9.952;2022-10-18T04:49:32;101455.69;;;15.90;100.00
13705;BME280;6924;52.122;9.952;2022-10-18T04:52:00;101463.41;;;15.90;100.00
13705;BME280;6924;52.122;9.952;2022-10-18T04:54:27;101467.41;;;15.89;100.00
13705;BME280;6924;52.122;9.952;2022-10-18T04:56:53;101461.72;;;15.89;100.00
13705;BME280;6924;52.122;9.952;2022-10-18T04:59:20;101454.34;;;15.88;100.00
13705;BME280;6924;52.122;9.952;2022-10-18T05:01:46;101464.56;;;15.89;100.00
13705;BME280;6924;52.122;9.952;2022-10-18T05:04:13;101456.38;;;15.87;100.00
13705;BME280;6924;52.122;9.952;2022-10-18T05:06:39;101459.22;;;15.87;100.00
13705;BME280;6924;52.122;9.952;2022-10-18T05:09:07;101462.38;;;15.86;100.00
13705;BME280;6924;52.122;9.952;2022-10-18T05:11:34;101460.69;;;15.85;100.00
13705;BME280;6924;52.122;9.952;2022-10-18T05:14:00;101472.09;;;15.85;100.00
13705;BME280;6924;52.122;9.952;2022-10-18T05:16:27;101476.97;;;15.84;100.00
13705;BME280;6924;52.122;9.952;2022-10-18T05:18:53;101472.09;;;15.85;100.00
13705;BME280;6924;52.122;9.952;2022-10-18T05:21:20;101467.91;;;15.82;100.00
13705;BME280;6924;52.122;9.952;2022-10-18T05:23:46;101465.03;;;15.82;100.00
13705;BME280;6924;52.122;9.952;2022-10-18T05:26:14;101464.88;;;15.79;100.00
13705;BME280;6924;52.122;9.952;2022-10-18T05:28:41;101471.75;;;15.78;100.00
13705;BME280;6924;52.122;9.952;2022-10-18T05:31:09;101465.19;;;15.77;100.00
13705;BME280;6924;52.122;9.952;2022-10-18T05:33:36;101468.06;;;15.77;100.00
13705;BME280;6924;52.122;9.952;2022-10-18T05:36:02;101475.41;;;15.78;100.00
13705;BME280;6924;52.122;9.952;2022-10-18T05:38:29;101479.66;;;15.81;100.00
13705;BME280;6924;52.122;9.952;2022-10-18T05:40:56;101474.59;;;15.78;100.00
13705;BME280;6924;52.122;9.952;2022-10-18T05:43:26;101482.81;;;15.79;100.00
13705;BME280;6924;52.122;9.952;2022-10-18T05:45:53;101487.19;;;15.77;100.00
13705;BME280;6924;52.122;9.952;2022-10-18T05:48:20;101478.94;;;15.75;100.00
13705;BME280;6924;52.122;9.952;2022-10-18T05:50:46;101488.84;;;15.78;100.00
13705;BME280;6924;52.122;9.952;2022-10-18T05:53:13;101495.75;;;15.77;100.00
13705;BME280;6924;52.122;9.952;2022-10-18T05:55:39;101490.03;;;15.77;100.00
13705;BME280;6924;52.122;9.952;2022-10-18T05:58:06;101494.56;;;15.78;100.00
13705;BME280;6924;52.122;9.952;2022-10-18T06:00:33;101486.00;;;15.78;100.00
13705;BME280;6924;52.122;9.952;2022-10-18T06:03:01;101495.38;;;15.78;100.00
13705;BME280;6924;52.122;9.952;2022-10-18T06:05:27;101496.56;;;15.77;100.00
13705;BME280;6924;52.122;9.952;2022-10-18T06:07:55;101495.75;;;15.77;100.00
13705;BME280;6924;52.122;9.952;2022-10-18T06:10:21;101498.59;;;15.77;100.00
13705;BME280;6924;52.122;9.952;2022-10-18T06:12:48;101500.09;;;15.74;100.00
13705;BME280;6924;52.122;9.952;2022-10-18T06:15:14;101499.75;;;15.76;100.00
13705;BME280;6924;52.122;9.952;2022-10-18T06:17:42;101494.03;;;15.76;100.00
13705;BME280;6924;52.122;9.952;2022-10-18T06:20:09;101499.88;;;15.70;100.00
13705;BME280;6924;52.122;9.952;2022-10-18T06:22:35;101497.31;;;15.69;100.00
13705;BME280;6924;52.122;9.952;2022-10-18T06:25:02;101498.50;;;15.68;100.00
13705;BME280;6924;52.122;9.952;2022-10-18T06:27:28;101497.66;;;15.67;100.00
13705;BME280;6924;52.122;9.952;2022-10-18T06:29:56;101495.97;;;15.66;100.00
13705;BME280;6924;52.122;9.952;2022-10-18T06:32:23;101502.00;;;15.65;100.00
13705;BME280;6924;52.122;9.952;2022-10-18T06:34:51;101492.28;;;15.66;100.00
13705;BME280;6924;52.122;9.952;2022-10-18T06:37:17;101498.00;;;15.66;100.00
13705;BME280;6924;52.122;9.952;2022-10-18T06:39:44;101495.47;;;15.64;100.00
13705;BME280;6924;52.122;9.952;2022-10-18T06:42:10;101492.94;;;15.63;100.00
13705;BME280;6924;52.122;9.952;2022-10-18T06:44:37;101500.00;;;15.65;100.00
13705;BME280;6924;52.122;9.952;2022-10-18T06:47:06;101495.47;;;15.64;100.00
13705;BME280;6924;52.122;9.952;2022-10-18T06:49:32;101502.50;;;15.67;100.00
13705;BME280;6924;52.122;9.952;2022-10-18T06:52:00;101499.66;;;15.67;100.00
13705;BME280;6924;52.122;9.952;2022-10-18T06:54:27;101502.50;;;15.67;100.00
13705;BME280;6924;52.122;9.952;2022-10-18T06:56:54;101509.06;;;15.67;100.00
13705;BME280;6924;52.122;9.952;2022-10-18T06:59:21;101502.66;;;15.62;100.00
13705;BME280;6924;52.122;9.952;2022-10-18T07:01:47;101515.94;;;15.66;100.00
13705;BME280;6924;52.122;9.952;2022-10-18T07:04:14;101511.06;;;15.67;100.00
13705;BME280;6924;52.122;9.952;2022-10-18T07:06:40;101511.06;;;15.67;100.00
13705;BME280;6924;52.122;9.952;2022-10-18T07:09:09;101522.16;;;15.68;100.00
13705;BME280;6924;52.122;9.952;2022-10-18T07:11:36;101503.81;;;15.61;100.00
13705;BME280;6924;52.122;9.952;2022-10-18T07:14:02;101516.78;;;15.67;100.00
13705;BME280;6924;52.122;9.952;2022-10-18T07:16:30;101525.00;;;15.68;100.00
13705;BME280;6924;52.122;9.952;2022-10-18T07:18:57;101522.69;;;15.70;100.00
13705;BME280;6924;52.122;9.952;2022-10-18T07:21:24;101512.56;;;15.64;100.00
13705;BME280;6924;52.122;9.952;2022-10-18T07:23:52;101524.69;;;15.70;100.00
13705;BME280;6924;52.122;9.952;2022-10-18T07:26:21;101522.69;;;15.70;100.00
13705;BME280;6924;52.122;9.952;2022-10-18T07:28:50;101516.97;;;15.70;100.00
13705;BME280;6924;52.122;9.952;2022-10-18T07:31:18;101523.53;;;15.71;100.00
13705;BME280;6924;52.122;9.952;2022-10-18T07:33:44;101525.53;;;15.70;100.00
13705;BME280;6924;52.122;9.952;2022-10-18T07:36:11;101528.09;;;15.72;100.00
13705;BME280;6924;52.122;9.952;2022-10-18T07:38:38;101524.69;;;15.70;100.00
13705;BME280;6924;52.122;9.952;2022-10-18T07:41:06;101531.78;;;15.73;100.00
13705;BME280;6924;52.122;9.952;2022-10-18T07:43:34;101531.13;;;15.76;100.00
13705;BME280;6924;52.122;9.952;2022-10-18T07:46:03;101539.38;;;15.77;100.00
13705;BME280;6924;52.122;9.952;2022-10-18T07:48:29;101530.81;;;15.77;100.00
13705;BME280;6924;52.122;9.952;2022-10-18T07:50:57;101533.97;;;15.76;100.00
13705;BME280;6924;52.122;9.952;2022-10-18T07:53:24;101538.53;;;15.77;100.00
13705;BME280;6924;52.122;9.952;2022-10-18T07:55:51;101531.31;;;15.79;100.00
13705;BME280;6924;52.122;9.952;2022-10-18T07:58:17;101538.38;;;15.82;100.00
13705;BME280;6924;52.122;9.952;2022-10-18T08:00:45;101539.22;;;15.82;100.00
13705;BME280;6924;52.122;9.952;2022-10-18T08:03:12;101541.53;;;15.80;100.00
13705;BME280;6924;52.122;9.952;2022-10-18T08:05:38;101534.16;;;15.79;100.00
13705;BME280;6924;52.122;9.952;2022-10-18T08:08:05;101537.19;;;15.83;100.00
13705;BME280;6924;52.122;9.952;2022-10-18T08:10:33;101530.66;;;15.82;100.00
13705;BME280;6924;52.122;9.952;2022-10-18T08:13:00;101525.94;;;15.78;100.00
13705;BME280;6924;52.122;9.952;2022-10-18T08:15:26;101528.63;;;15.83;100.00
13705;BME280;6924;52.122;9.952;2022-10-18T08:17:54;101527.47;;;15.84;100.00
13705;BME280;6924;52.122;9.952;2022-10-18T08:20:21;101534.22;;;15.88;100.00
13705;BME280;6924;52.122;9.952;2022-10-18T08:22:48;101526.19;;;15.90;100.00
13705;BME280;6924;52.122;9.952;2022-10-18T08:25:15;101523.84;;;15.92;100.00
13705;BME280;6924;52.122;9.952;2022-10-18T08:27:42;101525.72;;;15.97;100.00
13705;BME280;6924;52.122;9.952;2022-10-18T08:30:09;101529.41;;;15.97;100.00
13705;BME280;6924;52.122;9.952;2022-10-18T08:32:35;101533.78;;;16.03;100.00
13705;BME280;6924;52.122;9.952;2022-10-18T08:35:04;101538.84;;;16.06;100.00
13705;BME280;6924;52.122;9.952;2022-10-18T08:37:31;101536.19;;;16.10;100.00
13705;BME280;6924;52.122;9.952;2022-10-18T08:39:57;101531.81;;;16.13;100.00
13705;BME280;6924;52.122;9.952;2022-10-18T08:42:48;101534.88;;;16.16;100.00
13705;BME280;6924;52.122;9.952;2022-10-18T08:45:19;101539.59;;;16.21;100.00
13705;BME280;6924;52.122;9.952;2022-10-18T08:47:48;101545.44;;;16.24;100.00
13705;BME280;6924;52.122;9.952;2022-10-18T08:50:21;101547.31;;;16.29;100.00
13705;BME280;6924;52.122;9.952;2022-10-18T08:52:52;101546.69;;;16.32;100.00
13705;BME280;6924;52.122;9.952;2022-10-18T08:55:25;101542.81;;;16.37;100.00
13705;BME280;6924;52.122;9.952;2022-10-18T08:57:55;101538.97;;;16.41;100.00
13705;BME280;6924;52.122;9.952;2022-10-18T09:00:24;101542.84;;;16.45;100.00
13705;BME280;6924;52.122;9.952;2022-10-18T09:03:02;101547.06;;;16.48;100.00
13705;BME280;6924;52.122;9.952;2022-10-18T09:05:45;101548.91;;;16.52;100.00
13705;BME280;6924;52.122;9.952;2022-10-18T09:08:28;101550.78;;;16.57;100.00
13705;BME280;6924;52.122;9.952;2022-10-18T09:11:07;101557.66;;;16.56;100.00
13705;BME280;6924;52.122;9.952;2022-10-18T09:14:02;101550.97;;;16.61;100.00
13705;BME280;6924;52.122;9.952;2022-10-18T09:16:38;101552.81;;;16.65;100.00
13705;BME280;6924;52.122;9.952;2022-10-18T09:19:16;101552.63;;;16.62;100.00
13705;BME280;6924;52.122;9.952;2022-10-18T09:21:51;101553.34;;;16.67;100.00
13705;BME280;6924;52.122;9.952;2022-10-18T09:24:21;101557.34;;;16.66;100.00
13705;BME280;6924;52.122;9.952;2022-10-18T09:26:56;101559.56;;;16.69;100.00
13705;BME280;6924;52.122;9.952;2022-10-18T09:29:41;101566.28;;;16.73;100.00
13705;BME280;6924;52.122;9.952;2022-10-18T09:32:24;101573.00;;;16.78;100.00
13705;BME280;6924;52.122;9.952;2022-10-18T09:34:56;101575.84;;;16.78;100.00
13705;BME280;6924;52.122;9.952;2022-10-18T09:37:28;101575.38;;;16.84;100.00
13705;BME280;6924;52.122;9.952;2022-10-18T09:40:02;101575.56;;;16.88;100.00
13705;BME280;6924;52.122;9.952;2022-10-18T09:42:33;101570.56;;;16.93;100.00
13705;BME280;6924;52.122;9.952;2022-10-18T09:45:03;101573.06;;;16.95;100.00
13705;BME280;6924;52.122;9.952;2022-10-18T09:47:34;101583.00;;;16.98;100.00
13705;BME280;6924;52.122;9.952;2022-10-18T09:50:12;101583.84;;;16.98;100.00
13705;BME280;6924;52.122;9.952;2022-10-18T09:52:45;101586.34;;;17.00;100.00
13705;BME280;6924;52.122;9.952;2022-10-18T09:55:19;101582.84;;;17.03;100.00
13705;BME280;6924;52.122;9.952;2022-10-18T09:57:50;101589.19;;;17.00;100.00
13705;BME280;6924;52.122;9.952;2022-10-18T10:00:22;101586.03;;;17.01;100.00
13705;BME280;6924;52.122;9.952;2022-10-18T10:02:50;101588.88;;;17.01;100.00
13705;BME280;6924;52.122;9.952;2022-10-18T10:05:16;101583.66;;;17.03;100.00
13705;BME280;6924;52.122;9.952;2022-10-18T10:07:46;101598.78;;;17.04;100.00
13705;BME280;6924;52.122;9.952;2022-10-18T10:10:16;101586.53;;;17.03;100.00
13705;BME280;6924;52.122;9.952;2022-10-18T10:12:45;101586.19;;;17.05;100.00
13705;BME280;6924;52.122;9.952;2022-10-18T10:15:17;101587.53;;;17.07;100.00
13705;BME280;6924;52.122;9.952;2022-10-18T10:17:44;101591.25;;;17.08;100.00
13705;BME280;6924;52.122;9.952;2022-10-18T10:20:21;101591.56;;;17.06;100.00
13705;BME280;6924;52.122;9.952;2022-10-18T10:22:51;101590.41;;;17.07;100.00
13705;BME280;6924;52.122;9.952;2022-10-18T10:25:22;101593.78;;;17.09;100.00
13705;BME280;6924;52.122;9.952;2022-10-18T10:27:51;101590.22;;;17.04;100.00
13705;BME280;6924;52.122;9.952;2022-10-18T10:30:24;101598.63;;;17.00;100.00
13705;BME280;6924;52.122;9.952;2022-10-18T10:32:53;101597.13;;;17.03;100.00
13705;BME280;6924;52.122;9.952;2022-10-18T10:35:29;101596.94;;;16.99;100.00
13705;BME280;6924;52.122;9.952;2022-10-18T10:37:57;101594.44;;;16.98;100.00
13705;BME280;6924;52.122;9.952;2022-10-18T10:40:25;101586.53;;;17.03;100.00
13705;BME280;6924;52.122;9.952;2022-10-18T10:42:59;101585.00;;;17.06;100.00
13705;BME280;6924;52.122;9.952;2022-10-18T10:45:28;101583.97;;;16.93;100.00
13705;BME280;6924;52.122;9.952;2022-10-18T10:48:03;101591.72;;;16.92;100.00
13705;BME280;6924;52.122;9.952;2022-10-18T10:50:30;101588.03;;;17.01;100.00
13705;BME280;6924;52.122;9.952;2022-10-18T10:52:58;101580.63;;;16.91;100.00
13705;BME280;6924;52.122;9.952;2022-10-18T10:55:30;101584.16;;;16.97;100.00
13705;BME280;6924;52.122;9.952;2022-10-18T10:57:59;101595.94;;;17.04;100.00
13705;BME280;6924;52.122;9.952;2022-10-18T11:00:41;101590.41;;;17.07;100.00
13705;BME280;6924;52.122;9.952;2022-10-18T11:03:12;101586.88;;;17.10;100.00
13705;BME280;6924;52.122;9.952;2022-10-18T11:05:44;101594.44;;;17.15;100.00
13705;BME280;6924;52.122;9.952;2022-10-18T11:08:15;101599.81;;;17.17;100.00
13705;BME280;6924;52.122;9.952;2022-10-18T11:10:52;101595.94;;;17.12;100.00
13705;BME280;6924;52.122;9.952;2022-10-18T11:13:26;101601.03;;;17.16;100.00
13705;BME280;6924;52.122;9.952;2022-10-18T11:15:58;101595.97;;;17.21;100.00
13705;BME280;6924;52.122;9.952;2022-10-18T11:18:31;101586.72;;;17.24;100.00
13705;BME280;6924;52.122;9.952;2022-10-18T11:21:04;101585.22;;;17.27;100.00
13705;BME280;6924;52.122;9.952;2022-10-18T11:23:35;101587.25;;;17.26;100.00
13705;BME280;6924;52.122;9.952;2022-10-18T11:26:12;101596.28;;;17.28;100.00
13705;BME280;6924;52.122;9.952;2022-10-18T11:28:57;101589.09;;;17.31;100.00
13705;BME280;6924;52.122;9.952;2022-10-18T11:31:31;101582.50;;;17.39;100.00
13705;BME280;6924;52.122;9.952;2022-10-18T11:34:10;101580.34;;;17.45;100.00
13705;BME280;6924;52.122;9.952;2022-10-18T11:36:47;101584.72;;;17.51;100.00
13705;BME280;6924;52.122;9.952;2022-10-18T11:39:25;101583.00;;;17.50;100.00
13705;BME280;6924;52.122;9.952;2022-10-18T11:42:03;101583.50;;;17.52;100.00
13705;BME280;6924;52.122;9.952;2022-10-18T11:44:40;101579.13;;;17.37;100.00
13705;BME280;6924;52.122;9.952;2022-10-18T11:47:14;101571.94;;;17.40;100.00
13705;BME280;6924;52.122;9.952;2022-10-18T11:49:54;101575.31;;;17.33;100.00
13705;BME280;6924;52.122;9.952;2022-10-18T11:52:28;101568.72;;;17.41;100.00
13705;BME280;6924;52.122;9.952;2022-10-18T11:55:17;101566.72;;;17.42;100.00
13705;BME280;6924;52.122;9.952;2022-10-18T11:57:50;101568.88;;;17.45;100.00
13705;BME280;6924;52.122;9.952;2022-10-18T12:00:31;101564.69;;;17.51;100.00
13705;BME280;6924;52.122;9.952;2022-10-18T12:03:19;101565.69;;;17.46;100.00
13705;BME280;6924;52.122;9.952;2022-10-18T12:05:49;101555.94;;;17.47;100.00
13705;BME280;6924;52.122;9.952;2022-10-18T12:08:18;101568.56;;;17.38;100.00
13705;BME280;6924;52.122;9.952;2022-10-18T12:10:49;101566.72;;;17.42;100.00
13705;BME280;6924;52.122;9.952;2022-10-18T12:13:20;101564.19;;;17.49;100.00
13705;BME280;6924;52.122;9.952;2022-10-18T12:15:49;101566.03;;;17.53;99.43
13705;BME280;6924;52.122;9.952;2022-10-18T12:18:20;101554.41;;;17.59;100.00
13705;BME280;6924;52.122;9.952;2022-10-18T12:20:52;101555.75;;;17.44;98.56
13705;BME280;6924;52.122;9.952;2022-10-18T12:23:25;101555.09;;;17.47;98.80
13705;BME280;6924;52.122;9.952;2022-10-18T12:26:01;101546.53;;;17.47;97.09
13705;BME280;6924;52.122;9.952;2022-10-18T12:28:36;101543.28;;;17.57;99.01
13705;BME280;6924;52.122;9.952;2022-10-18T12:31:12;101558.09;;;17.59;97.83
13705;BME280;6924;52.122;9.952;2022-10-18T12:33:44;101541.94;;;17.63;96.84
13705;BME280;6924;52.122;9.952;2022-10-18T12:36:21;101536.22;;;17.54;96.31
13705;BME280;6924;52.122;9.952;2022-10-18T12:38:56;101546.31;;;17.61;97.27
13705;BME280;6924;52.122;9.952;2022-10-18T12:41:26;101540.59;;;17.61;95.46
13705;BME280;6924;52.122;9.952;2022-10-18T12:43:57;101528.63;;;17.76;97.62
13705;BME280;6924;52.122;9.952;2022-10-18T12:46:42;101531.66;;;17.80;96.96
13705;BME280;6924;52.122;9.952;2022-10-18T12:49:11;101525.44;;;17.86;95.68
13705;BME280;6924;52.122;9.952;2022-10-18T12:51:48;101538.03;;;17.85;95.05
13705;BME280;6924;52.122;9.952;2022-10-18T12:54:17;101534.53;;;17.88;93.67
13705;BME280;6924;52.122;9.952;2022-10-18T12:56:47;101534.66;;;17.92;92.52
13705;BME280;6924;52.122;9.952;2022-10-18T12:59:48;101530.41;;;18.07;95.94
13705;BME280;6924;52.122;9.952;2022-10-18T13:02:29;101525.91;;;17.97;96.79
13705;BME280;6924;52.122;9.952;2022-10-18T13:04:56;101523.38;;;17.95;93.38
13705;BME280;6924;52.122;9.952;2022-10-18T13:07:38;101542.09;;;17.75;96.23